createdAt,value
2019-01-27T00:01:32.802Z,91.98
2019-01-27T00:04:03.184Z,92.11
2019-01-27T00:06:33.659Z,91.74
2019-01-27T00:09:06.802Z,91.87
2019-01-27T00:11:37.265Z,91.80
2019-01-27T00:14:07.761Z,92.09
2019-01-27T00:16:38.148Z,92.07
2019-01-27T00:19:08.680Z,92.20
2019-01-27T00:21:39.135Z,92.24
2019-01-27T00:24:09.476Z,91.79
2019-01-27T00:26:39.810Z,91.50
2019-01-27T00:29:10.189Z,91.69
2019-01-27T00:31:40.532Z,91.42
2019-01-27T00:34:10.909Z,91.47
2019-01-27T00:36:41.315Z,90.99
2019-01-27T00:39:12.343Z,90.84
2019-01-27T00:41:42.876Z,91.61
2019-01-27T00:44:13.217Z,91.94
2019-01-27T00:46:43.484Z,91.51
2019-01-27T00:49:13.808Z,92.22
2019-01-27T00:51:44.235Z,91.51
2019-01-27T00:54:14.602Z,92.30
2019-01-27T00:56:44.976Z,92.36
2019-01-27T00:59:15.210Z,92.79
2019-01-27T01:01:45.608Z,92.87
2019-01-27T01:04:15.912Z,92.70
2019-01-27T01:06:46.346Z,92.88
2019-01-27T01:09:16.759Z,93.32
2019-01-27T01:11:47.228Z,93.31
2019-01-27T01:14:17.611Z,92.78
2019-01-27T01:16:48.029Z,92.94
2019-01-27T01:19:18.515Z,92.53
2019-01-27T01:21:48.958Z,92.94
2019-01-27T01:24:19.295Z,93.13
2019-01-27T01:26:49.607Z,93.13
2019-01-27T01:29:19.917Z,92.99
2019-01-27T01:31:50.282Z,92.83
2019-01-27T01:34:21.691Z,93.01
2019-01-27T01:36:52.056Z,93.53
2019-01-27T01:39:22.348Z,93.78
2019-01-27T01:41:52.710Z,94.07
2019-01-27T01:44:22.961Z,93.92
2019-01-27T01:46:53.316Z,93.82
2019-01-27T01:49:30.882Z,93.26
2019-01-27T01:52:01.204Z,92.08
2019-01-27T01:54:31.496Z,91.58
2019-01-27T01:57:02.357Z,92.68
2019-01-27T01:59:32.714Z,92.58
2019-01-27T02:02:03.128Z,93.19
2019-01-27T02:04:33.425Z,93.53
2019-01-27T02:07:03.840Z,92.83
2019-01-27T02:09:34.017Z,92.80
2019-01-27T02:12:04.896Z,93.11
2019-01-27T02:14:35.180Z,93.42
2019-01-27T02:17:05.555Z,93.57
2019-01-27T02:19:36.021Z,93.21
2019-01-27T02:22:06.484Z,93.30
2019-01-27T02:24:36.902Z,92.91
2019-01-27T02:27:07.359Z,91.84
2019-01-27T02:29:37.689Z,91.79
2019-01-27T02:32:08.074Z,91.16
2019-01-27T02:34:38.536Z,91.22
2019-01-27T02:37:08.874Z,90.00
2019-01-27T02:39:39.319Z,90.29
2019-01-27T02:42:09.715Z,90.56
2019-01-27T02:44:40.028Z,89.78
2019-01-27T02:47:10.508Z,90.06
2019-01-27T02:49:40.788Z,89.82
2019-01-27T02:52:11.000Z,89.26
2019-01-27T02:54:41.280Z,89.60
2019-01-27T02:57:11.529Z,89.08
2019-01-27T02:59:41.856Z,89.51
2019-01-27T03:02:13.268Z,89.31
2019-01-27T03:04:43.610Z,89.48
2019-01-27T03:07:21.933Z,89.53
2019-01-27T03:09:52.401Z,90.10
2019-01-27T03:12:22.877Z,89.48
2019-01-27T03:14:53.220Z,89.35
2019-01-27T03:17:23.736Z,89.25
2019-01-27T03:19:53.997Z,88.89
2019-01-27T03:22:24.400Z,88.98
2019-01-27T03:24:54.817Z,88.23
2019-01-27T03:27:25.250Z,87.88
2019-01-27T03:29:55.587Z,87.92
2019-01-27T03:32:26.004Z,87.76
2019-01-27T03:34:56.418Z,87.49
2019-01-27T03:37:26.802Z,87.68
2019-01-27T03:39:57.057Z,87.66
2019-01-27T03:42:27.363Z,86.35
2019-01-27T03:44:57.755Z,85.86
2019-01-27T03:47:28.106Z,85.89
2019-01-27T03:49:58.489Z,86.21
2019-01-27T03:52:28.821Z,86.77
2019-01-27T03:54:59.152Z,86.85
2019-01-27T03:57:29.541Z,87.04
2019-01-27T03:59:59.816Z,87.83
2019-01-27T04:02:31.174Z,87.78
2019-01-27T04:05:01.455Z,87.74
2019-01-27T04:07:31.804Z,87.50
2019-01-27T04:10:02.203Z,88.04
2019-01-27T04:12:32.495Z,87.83
2019-01-27T04:15:02.962Z,88.10
2019-01-27T04:17:33.275Z,88.55
2019-01-27T04:20:03.949Z,88.53
2019-01-27T04:22:34.121Z,88.98
2019-01-27T04:25:04.726Z,89.33
2019-01-27T04:27:35.103Z,89.91
2019-01-27T04:30:07.638Z,89.75
2019-01-27T04:32:37.921Z,89.22
2019-01-27T04:35:10.284Z,89.49
2019-01-27T04:37:40.703Z,89.60
2019-01-27T04:40:15.923Z,89.66
2019-01-27T04:42:46.219Z,89.59
2019-01-27T04:45:19.770Z,88.42
2019-01-27T04:47:50.094Z,88.25
2019-01-27T04:50:20.497Z,88.41
2019-01-27T04:52:50.854Z,88.40
2019-01-27T04:55:21.438Z,88.05
2019-01-27T04:57:51.790Z,88.42
2019-01-27T05:00:24.234Z,87.67
2019-01-27T05:03:03.543Z,87.61
2019-01-27T05:05:33.919Z,87.33
2019-01-27T05:08:04.522Z,86.92
2019-01-27T05:10:34.927Z,86.65
2019-01-27T05:13:06.159Z,86.22
2019-01-27T05:15:36.543Z,86.66
2019-01-27T05:18:06.954Z,87.74
2019-01-27T05:20:37.361Z,89.11
2019-01-27T05:23:07.815Z,89.41
2019-01-27T05:25:38.115Z,90.39
2019-01-27T05:28:08.490Z,89.80
2019-01-27T05:30:38.843Z,90.52
2019-01-27T05:33:09.165Z,91.64
2019-01-27T05:35:39.539Z,92.14
2019-01-27T05:38:09.865Z,92.43
2019-01-27T05:40:40.190Z,91.41
2019-01-27T05:43:10.582Z,91.38
2019-01-27T05:45:40.942Z,91.36
2019-01-27T05:48:11.175Z,90.98
2019-01-27T05:50:41.439Z,90.39
2019-01-27T05:53:11.738Z,89.95
2019-01-27T05:55:42.058Z,89.99
2019-01-27T05:58:12.365Z,88.58
2019-01-27T06:00:44.683Z,87.80
2019-01-27T06:03:15.467Z,88.74
2019-01-27T06:05:45.901Z,88.31
2019-01-27T06:08:16.102Z,87.91
2019-01-27T06:10:46.515Z,87.46
2019-01-27T06:13:16.867Z,88.18
2019-01-27T06:15:47.249Z,88.17
2019-01-27T06:18:17.699Z,88.12
2019-01-27T06:20:48.017Z,88.28
2019-01-27T06:23:18.405Z,88.24
2019-01-27T06:25:48.825Z,88.03
2019-01-27T06:28:19.045Z,87.53
2019-01-27T06:30:49.231Z,87.92
2019-01-27T06:33:36.814Z,87.95
2019-01-27T06:36:07.186Z,88.52
2019-01-27T06:38:37.566Z,88.24
2019-01-27T06:41:07.953Z,88.21
2019-01-27T06:43:38.263Z,88.64
2019-01-27T06:46:08.590Z,89.25
2019-01-27T06:48:38.915Z,88.71
2019-01-27T06:51:09.344Z,88.37
2019-01-27T06:53:39.756Z,89.04
2019-01-27T06:56:10.149Z,87.93
2019-01-27T06:59:15.211Z,88.29
2019-01-27T07:02:10.366Z,87.89
2019-01-27T07:04:51.799Z,88.08
2019-01-27T07:07:39.794Z,88.43
2019-01-27T07:10:28.237Z,88.56
2019-01-27T07:13:14.591Z,89.15
2019-01-27T07:16:09.922Z,88.32
2019-01-27T07:18:52.700Z,88.51
2019-01-27T07:21:40.562Z,88.10
2019-01-27T07:24:29.949Z,88.84
2019-01-27T07:27:19.196Z,89.05
2019-01-27T07:29:58.774Z,89.09
2019-01-27T07:32:49.648Z,89.73
2019-01-27T07:35:47.693Z,89.90
2019-01-27T07:38:37.163Z,89.56
2019-01-27T07:41:35.858Z,89.45
2019-01-27T07:44:28.081Z,90.01
2019-01-27T07:47:03.706Z,88.85
2019-01-27T07:50:05.203Z,88.54
2019-01-27T07:52:44.605Z,88.18
2019-01-27T07:55:45.876Z,87.84
2019-01-27T07:58:38.863Z,87.89
2019-01-27T08:01:18.747Z,87.66
2019-01-27T08:04:26.223Z,87.18
2019-01-27T08:07:30.536Z,86.94
2019-01-27T08:10:18.347Z,86.09
2019-01-27T08:13:06.440Z,85.23
2019-01-27T08:16:01.726Z,84.68
2019-01-27T08:18:54.709Z,84.18
2019-01-27T08:21:34.133Z,84.27
2019-01-27T08:24:35.925Z,84.64
2019-01-27T08:27:17.993Z,83.81
2019-01-27T08:30:14.886Z,83.58
2019-01-27T08:33:02.820Z,81.92
2019-01-27T08:35:40.744Z,82.04
2019-01-27T08:38:29.378Z,82.29
2019-01-27T08:41:25.514Z,82.65
2019-01-27T08:44:10.200Z,83.38
2019-01-27T08:46:59.539Z,83.67
2019-01-27T08:49:30.010Z,83.72
2019-01-27T08:52:00.410Z,83.77
2019-01-27T08:54:30.923Z,84.18
2019-01-27T08:57:01.399Z,84.21
2019-01-27T08:59:31.981Z,84.47
2019-01-27T09:02:25.032Z,84.42
2019-01-27T09:05:17.246Z,84.52
2019-01-27T09:07:55.977Z,84.22
2019-01-27T09:10:42.093Z,84.22
2019-01-27T09:13:22.669Z,84.59
2019-01-27T09:16:14.764Z,83.54
2019-01-27T09:19:09.944Z,84.05
2019-01-27T09:21:53.493Z,84.10
2019-01-27T09:24:35.291Z,84.46
2019-01-27T09:27:19.663Z,84.49
2019-01-27T09:30:08.237Z,83.38
2019-01-27T09:33:08.022Z,83.48
2019-01-27T09:36:09.555Z,83.08
2019-01-27T09:39:08.158Z,82.49
2019-01-27T09:41:53.140Z,81.72
2019-01-27T09:44:34.930Z,82.55
2019-01-27T09:47:31.571Z,81.86
2019-01-27T09:50:20.283Z,81.17
2019-01-27T09:53:24.517Z,80.86
2019-01-27T09:56:04.415Z,81.71
2019-01-27T09:58:52.325Z,81.86
2019-01-27T10:01:47.791Z,81.38
2019-01-27T10:04:26.314Z,80.47
2019-01-27T10:07:15.638Z,79.71
2019-01-27T10:09:57.450Z,78.76
2019-01-27T10:12:39.868Z,78.45
2019-01-27T10:15:34.256Z,77.91
2019-01-27T10:18:17.633Z,78.22
2019-01-27T10:21:10.003Z,77.86
2019-01-27T10:23:58.424Z,77.53
2019-01-27T10:26:53.547Z,77.29
2019-01-27T10:29:43.336Z,77.34
2019-01-27T10:32:27.839Z,76.72
2019-01-27T10:35:04.123Z,76.26
2019-01-27T10:37:45.188Z,76.97
2019-01-27T10:40:39.911Z,77.49
2019-01-27T10:43:21.700Z,77.21
2019-01-27T10:46:25.974Z,77.63
2019-01-27T10:49:21.205Z,75.61
2019-01-27T10:52:02.431Z,74.61
2019-01-27T10:54:49.234Z,75.19
2019-01-27T10:57:30.445Z,74.48
2019-01-27T11:00:23.474Z,73.50
2019-01-27T11:03:13.700Z,72.94
2019-01-27T11:06:07.572Z,72.19
2019-01-27T11:08:55.610Z,72.97
2019-01-27T11:11:38.934Z,74.02
2019-01-27T11:14:28.262Z,75.49
2019-01-27T11:17:12.240Z,76.46
2019-01-27T11:20:07.770Z,76.98
2019-01-27T11:22:50.630Z,76.50
2019-01-27T11:25:42.979Z,77.08
2019-01-27T11:28:36.601Z,76.79
2019-01-27T11:31:40.990Z,77.17
2019-01-27T11:34:26.774Z,76.42
2019-01-27T11:37:11.114Z,76.47
2019-01-27T11:40:03.210Z,77.00
2019-01-27T11:42:50.739Z,77.24
2019-01-27T11:45:39.387Z,76.39
2019-01-27T11:48:24.722Z,75.77
2019-01-27T11:50:58.924Z,75.86
2019-01-27T11:53:29.354Z,75.41
2019-01-27T11:55:59.809Z,74.64
2019-01-27T11:58:30.202Z,75.26
2019-01-27T12:01:04.701Z,75.76
2019-01-27T12:03:35.012Z,76.40
2019-01-27T12:06:05.668Z,77.85
2019-01-27T12:08:35.890Z,77.45
2019-01-27T12:11:06.982Z,79.97
2019-01-27T12:13:38.504Z,80.74
2019-01-27T12:16:08.888Z,81.38
2019-01-27T12:18:39.228Z,80.85
2019-01-27T12:21:09.587Z,80.80
2019-01-27T12:23:39.896Z,81.20
2019-01-27T12:26:10.179Z,79.97
2019-01-27T12:28:40.602Z,79.81
2019-01-27T12:31:10.968Z,78.56
2019-01-27T12:33:41.264Z,78.93
2019-01-27T12:36:13.719Z,78.44
2019-01-27T12:38:44.039Z,77.82
2019-01-27T12:41:14.490Z,76.15
2019-01-27T12:43:45.037Z,76.88
2019-01-27T12:46:15.387Z,76.32
2019-01-27T12:48:45.790Z,77.00
2019-01-27T12:51:16.206Z,75.01
2019-01-27T12:53:46.628Z,75.32
2019-01-27T12:56:17.054Z,75.18
2019-01-27T12:58:50.847Z,74.85
2019-01-27T13:01:21.227Z,74.60
2019-01-27T13:03:51.641Z,73.87
2019-01-27T13:06:22.047Z,73.70
2019-01-27T13:08:52.595Z,74.06
2019-01-27T13:11:23.077Z,74.19
2019-01-27T13:13:53.507Z,74.40
2019-01-27T13:16:24.254Z,73.52
2019-01-27T13:18:54.716Z,72.41
2019-01-27T13:21:25.769Z,73.36
2019-01-27T13:23:56.170Z,73.85
2019-01-27T13:26:26.672Z,74.61
2019-01-27T13:28:57.127Z,74.45
2019-01-27T13:31:29.621Z,74.90
2019-01-27T13:34:00.387Z,75.76
2019-01-27T13:36:32.119Z,75.73
2019-01-27T13:39:02.447Z,75.71
2019-01-27T13:41:32.863Z,74.54
2019-01-27T13:44:03.318Z,74.52
2019-01-27T13:46:34.727Z,74.84
2019-01-27T13:49:05.294Z,73.18
2019-01-27T13:51:35.889Z,73.44
2019-01-27T13:54:06.434Z,72.78
2019-01-27T13:56:36.854Z,72.41
2019-01-27T13:59:07.298Z,72.27
2019-01-27T14:01:37.586Z,71.99
2019-01-27T14:04:08.179Z,72.73
2019-01-27T14:06:38.629Z,73.17
2019-01-27T14:09:09.555Z,72.06
2019-01-27T14:11:40.001Z,71.05
2019-01-27T14:14:10.371Z,70.78
2019-01-27T14:16:40.774Z,70.75
2019-01-27T14:19:11.324Z,70.25
2019-01-27T14:21:41.694Z,70.60
2019-01-27T14:24:12.114Z,71.01
2019-01-27T14:26:43.601Z,70.41
2019-01-27T14:29:14.142Z,70.68
2019-01-27T14:31:44.745Z,70.02
2019-01-27T14:34:15.192Z,69.77
2019-01-27T14:36:45.678Z,69.59
2019-01-27T14:39:18.008Z,69.53
2019-01-27T14:41:48.464Z,69.97
2019-01-27T14:44:19.138Z,69.62
2019-01-27T14:46:49.651Z,68.97
2019-01-27T14:49:20.126Z,68.99
2019-01-27T14:51:50.553Z,69.27
2019-01-27T14:54:21.231Z,69.57
2019-01-27T14:56:51.834Z,69.22
2019-01-27T14:59:22.421Z,68.60
2019-01-27T15:01:52.821Z,68.70
2019-01-27T15:04:23.327Z,68.09
2019-01-27T15:06:53.877Z,68.64
2019-01-27T15:09:24.354Z,68.99
2019-01-27T15:11:54.858Z,68.74
2019-01-27T15:14:25.538Z,68.82
2019-01-27T15:16:56.194Z,69.43
2019-01-27T15:19:27.381Z,68.77
2019-01-27T15:21:58.068Z,68.15
2019-01-27T15:24:28.677Z,68.46
2019-01-27T15:26:59.290Z,68.17
2019-01-27T15:29:29.709Z,68.93
2019-01-27T15:32:01.211Z,69.48
2019-01-27T15:34:31.850Z,69.74
2019-01-27T15:37:02.299Z,69.79
2019-01-27T15:39:33.221Z,70.42
2019-01-27T15:42:03.495Z,70.93
2019-01-27T15:44:34.299Z,70.73
2019-01-27T15:47:05.031Z,71.40
2019-01-27T15:49:35.683Z,71.17
2019-01-27T15:52:06.293Z,71.22
2019-01-27T15:54:36.814Z,71.65
2019-01-27T15:57:07.252Z,74.02
2019-01-27T15:59:37.574Z,72.46
2019-01-27T16:02:08.047Z,72.57
2019-01-27T16:04:38.560Z,72.86
2019-01-27T16:07:09.030Z,72.54
2019-01-27T16:09:39.490Z,72.75
2019-01-27T16:12:09.917Z,73.25
2019-01-27T16:14:40.456Z,73.24
2019-01-27T16:17:11.048Z,74.14
2019-01-27T16:19:42.324Z,75.22
2019-01-27T16:22:12.779Z,75.31
2019-01-27T16:24:43.262Z,76.31
2019-01-27T16:27:13.695Z,77.28
2019-01-27T16:30:02.946Z,77.61
2019-01-27T16:32:36.289Z,77.72
2019-01-27T16:35:12.820Z,78.73
2019-01-27T16:37:43.294Z,78.65
2019-01-27T16:40:16.387Z,79.08
2019-01-27T16:42:47.661Z,79.64
2019-01-27T16:45:18.128Z,80.01
2019-01-27T16:47:48.628Z,79.72
2019-01-27T16:50:19.850Z,80.16
2019-01-27T16:52:50.341Z,81.02
2019-01-27T16:55:21.150Z,81.00
2019-01-27T16:57:52.584Z,81.60
2019-01-27T17:00:26.498Z,81.80
2019-01-27T17:02:57.034Z,82.18
2019-01-27T17:05:27.478Z,82.73
2019-01-27T17:07:58.029Z,83.14
2019-01-27T17:10:29.389Z,83.25
2019-01-27T17:13:00.256Z,84.17
2019-01-27T17:15:30.945Z,84.04
2019-01-27T17:18:02.431Z,84.86
2019-01-27T17:20:32.941Z,85.29
2019-01-27T17:23:03.434Z,87.64
2019-01-27T17:25:33.983Z,86.13
2019-01-27T17:28:04.828Z,86.86
2019-01-27T17:30:35.359Z,87.40
2019-01-27T17:33:05.918Z,88.32
2019-01-27T17:35:37.777Z,88.78
2019-01-27T17:38:08.374Z,89.26
2019-01-27T17:40:38.929Z,89.05
2019-01-27T17:43:09.332Z,89.52
2019-01-27T17:45:39.877Z,89.66
2019-01-27T17:48:10.316Z,89.28
2019-01-27T17:50:40.724Z,89.63
2019-01-27T17:53:11.214Z,89.83
2019-01-27T17:55:42.721Z,89.76
2019-01-27T17:58:45.041Z,90.54
2019-01-27T18:01:46.530Z,89.98
2019-01-27T18:04:45.244Z,89.65
2019-01-27T18:07:36.168Z,90.10
2019-01-27T18:10:22.350Z,90.06
2019-01-27T18:13:11.634Z,90.38
2019-01-27T18:15:42.127Z,90.53
2019-01-27T18:18:12.561Z,91.10
2019-01-27T18:20:43.073Z,91.67
2019-01-27T18:23:13.530Z,91.05
2019-01-27T18:25:43.954Z,90.75
2019-01-27T18:28:14.526Z,90.58
2019-01-27T18:30:45.148Z,91.09
2019-01-27T18:33:15.577Z,90.96
2019-01-27T18:35:46.046Z,91.60
2019-01-27T18:38:16.616Z,91.83
2019-01-27T18:40:47.128Z,94.08
2019-01-27T18:43:17.624Z,94.25
2019-01-27T18:45:47.919Z,94.13
2019-01-27T18:48:18.491Z,93.59
2019-01-27T18:50:48.924Z,94.04
2019-01-27T18:53:41.514Z,93.55
2019-01-27T18:56:30.608Z,93.18
2019-01-27T18:59:18.751Z,93.58
2019-01-27T19:02:01.412Z,95.12
2019-01-27T19:04:37.523Z,95.49
2019-01-27T19:07:27.061Z,95.33
2019-01-27T19:10:31.537Z,95.59
2019-01-27T19:13:32.722Z,96.28
2019-01-27T19:16:23.941Z,96.92
2019-01-27T19:19:11.671Z,96.86
2019-01-27T19:22:01.404Z,97.29
2019-01-27T19:24:57.483Z,97.35
2019-01-27T19:27:53.964Z,97.23
2019-01-27T19:30:37.908Z,97.17
2019-01-27T19:33:27.202Z,97.34
2019-01-27T19:36:19.490Z,97.70
2019-01-27T19:39:00.027Z,97.25
2019-01-27T19:41:49.489Z,96.42
2019-01-27T19:44:41.610Z,96.19
2019-01-27T19:47:31.092Z,97.09
2019-01-27T19:50:19.261Z,97.18
2019-01-27T19:52:56.597Z,97.62
2019-01-27T19:55:55.142Z,97.64
2019-01-27T19:58:38.021Z,98.42
2019-01-27T20:01:26.459Z,98.75
2019-01-27T20:04:09.946Z,99.48
2019-01-27T20:06:57.415Z,99.79
2019-01-27T20:09:39.609Z,97.89
2019-01-27T20:12:22.137Z,96.06
2019-01-27T20:15:11.427Z,96.67
2019-01-27T20:18:09.907Z,95.62
2019-01-27T20:21:04.108Z,95.88
2019-01-27T20:24:11.436Z,95.87
2019-01-27T20:27:00.240Z,96.42
2019-01-27T20:29:45.394Z,97.04
2019-01-27T20:32:36.944Z,96.25
2019-01-27T20:35:41.909Z,96.76
2019-01-27T20:38:19.463Z,97.03
2019-01-27T20:41:12.117Z,97.14
2019-01-27T20:44:00.328Z,97.95
2019-01-27T20:46:41.541Z,97.64
2019-01-27T20:49:29.696Z,97.75
2019-01-27T20:52:19.157Z,97.46
2019-01-27T20:55:11.353Z,97.94
2019-01-27T20:57:48.383Z,98.04
2019-01-27T21:00:36.777Z,98.75
2019-01-27T21:03:30.147Z,98.94
2019-01-27T21:06:19.638Z,98.26
2019-01-27T21:09:10.912Z,98.63
2019-01-27T21:12:12.973Z,98.70
2019-01-27T21:14:53.765Z,98.44
2019-01-27T21:17:32.975Z,98.00
2019-01-27T21:20:10.419Z,99.00
2019-01-27T21:22:40.907Z,99.58
2019-01-27T21:25:12.798Z,100.00
2019-01-27T21:27:43.383Z,100.00
2019-01-27T21:30:17.114Z,100.00
2019-01-27T21:32:47.621Z,100.00
2019-01-27T21:35:25.066Z,100.00
2019-01-27T21:38:01.509Z,100.00
2019-01-27T21:40:31.837Z,100.00
2019-01-27T21:43:02.550Z,98.44
2019-01-27T21:45:33.015Z,98.46
2019-01-27T21:48:03.606Z,98.14
2019-01-27T21:50:34.226Z,97.04
2019-01-27T21:53:04.755Z,97.79
2019-01-27T21:55:35.251Z,97.25
2019-01-27T21:58:05.739Z,97.01
2019-01-27T22:00:36.158Z,97.18
2019-01-27T22:03:06.786Z,99.41
2019-01-27T22:05:38.398Z,99.07
2019-01-27T22:08:08.819Z,99.39
2019-01-27T22:10:40.714Z,99.55
2019-01-27T22:13:23.944Z,100.00
2019-01-27T22:15:56.747Z,99.78
2019-01-27T22:18:27.386Z,99.39
2019-01-27T22:20:58.140Z,100.00
2019-01-27T22:23:28.597Z,99.98
2019-01-27T22:25:58.969Z,100.00
2019-01-27T22:28:29.455Z,97.98
2019-01-27T22:31:06.763Z,97.00
2019-01-27T22:33:37.182Z,97.67
2019-01-27T22:36:07.584Z,98.44
2019-01-27T22:38:38.060Z,98.63
2019-01-27T22:41:08.560Z,99.43
2019-01-27T22:44:04.011Z,99.26
2019-01-27T22:46:48.572Z,98.08
2019-01-27T22:49:21.070Z,97.33
2019-01-27T22:51:52.517Z,96.95
2019-01-27T22:54:22.931Z,96.55
2019-01-27T22:56:53.361Z,96.46
2019-01-27T22:59:27.460Z,95.10
2019-01-27T23:02:01.007Z,95.01
2019-01-27T23:04:31.507Z,95.17
2019-01-27T23:07:02.066Z,94.00
2019-01-27T23:09:32.331Z,92.91
2019-01-27T23:12:02.772Z,93.32
2019-01-27T23:14:33.180Z,94.15
2019-01-27T23:17:03.685Z,93.25
2019-01-27T23:19:34.084Z,94.00
2019-01-27T23:22:04.570Z,94.74
2019-01-27T23:24:35.084Z,95.09
2019-01-27T23:27:05.554Z,95.82
2019-01-27T23:29:35.938Z,95.84
2019-01-27T23:32:06.486Z,96.29
2019-01-27T23:34:36.828Z,97.12
2019-01-27T23:37:07.234Z,97.16
2019-01-27T23:39:37.587Z,97.38
2019-01-27T23:42:07.988Z,97.83
2019-01-27T23:44:38.386Z,97.98
2019-01-27T23:47:08.788Z,98.28
2019-01-27T23:49:39.195Z,98.08
2019-01-27T23:52:09.623Z,97.94
2019-01-27T23:54:40.028Z,97.37
2019-01-27T23:57:10.421Z,96.56
2019-01-27T23:59:40.718Z,96.58
